Zorra — MFJU2 — position and weather

sailwx.info

Track history (hours):
 
Tides and Currents Weather Stations Pressure Air Temp Water Temp Dewpoint Dewpoint Depression Visibility Wind Speed Wind Dir Waves Ship Positions

Zorra

Last reported at 2017-Sep-01 16:40 UTC. Time now 2017-Sep-23 04:14 UTC.
Position N 50°43' W 001°58'.
Warning: this ship's position is 21 days out of date.

Length 12 m.

Type: Sailing vessel. MMSI: 235019256.

Date/timePositionNaut miles runAvg speedWind from/ knotsBaromVisibWave heightAir tempDewpointWater temp
2017-Sep-01 16:40N 50°43' W 001°58'0 0.0
2017-Sep-01 16:30N 50°43' W 001°58'2 3.6
2017-Sep-01 16:00N 50°41' W 001°57'3 5.6
2017-Sep-01 15:30N 50°38' W 001°55'45 1.6
2017-Aug-31 11:41N 50°24' W 003°01'1 6.2
2017-Aug-31 11:29N 50°24' W 003°03'3 6.2
2017-Aug-31 11:00N 50°24' W 003°08'3 6.0
2017-Aug-31 10:26N 50°23' W 003°13'3 5.9
2017-Aug-31 10:00N 50°23' W 003°17'3 5.4
2017-Aug-31 09:30N 50°23' W 003°21'3 5.3
2017-Aug-31 09:00N 50°24' W 003°25'3 5.6
2017-Aug-31 08:30N 50°25' W 003°29'1 2.4
2017-Aug-31 07:58N 50°24' W 003°30'0 0.0
2017-Aug-29 13:54N 50°24' W 003°30'0 0.0
2017-Aug-29 13:30N 50°24' W 003°30'2 3.1
2017-Aug-29 13:00N 50°24' W 003°28'2 4.7
2017-Aug-29 12:30N 50°21' W 003°28'3 5.0
2017-Aug-29 12:00N 50°19' W 003°30'6 6.2
2017-Aug-29 11:01N 50°15' W 003°36'0 5.8
2017-Aug-29 10:58N 50°14' W 003°37'3 5.1
2017-Aug-29 10:29N 50°12' W 003°38'  
2017-Aug-24 12:28N 50°22' W 004°08'9 3.8
2017-Aug-24 10:05N 50°17' W 004°20'0 4.8
2017-Aug-24 10:00N 50°17' W 004°21'8 0.4
2017-Aug-23 11:30N 50°21' W 004°09'1 0.1
2017-Aug-22 16:55N 50°22' W 004°08'  
Track history (hours):
 
Tides and Currents Weather Stations Pressure Air Temp Water Temp Dewpoint Dewpoint Depression Visibility Wind Speed Wind Dir Waves Ship Positions

Zorra

Last reported at 2017-Sep-01 16:40 UTC. Time now 2017-Sep-23 04:14 UTC.
Position N 50°43' W 001°58'.
Warning: this ship's position is 21 days out of date.

Length 12 m.

Type: Sailing vessel. MMSI: 235019256.

Date/timePositionNaut miles runAvg speedWind from/ knotsBaromVisibWave heightAir tempDewpointWater temp
2017-Sep-01 16:40N 50°43' W 001°58'0 0.0
2017-Sep-01 16:30N 50°43' W 001°58'2 3.6
2017-Sep-01 16:00N 50°41' W 001°57'3 5.6
2017-Sep-01 15:30N 50°38' W 001°55'45 1.6
2017-Aug-31 11:41N 50°24' W 003°01'1 6.2
2017-Aug-31 11:29N 50°24' W 003°03'3 6.2
2017-Aug-31 11:00N 50°24' W 003°08'3 6.0
2017-Aug-31 10:26N 50°23' W 003°13'3 5.9
2017-Aug-31 10:00N 50°23' W 003°17'3 5.4
2017-Aug-31 09:30N 50°23' W 003°21'3 5.3
2017-Aug-31 09:00N 50°24' W 003°25'3 5.6
2017-Aug-31 08:30N 50°25' W 003°29'1 2.4
2017-Aug-31 07:58N 50°24' W 003°30'0 0.0
2017-Aug-29 13:54N 50°24' W 003°30'0 0.0
2017-Aug-29 13:30N 50°24' W 003°30'2 3.1
2017-Aug-29 13:00N 50°24' W 003°28'2 4.7
2017-Aug-29 12:30N 50°21' W 003°28'3 5.0
2017-Aug-29 12:00N 50°19' W 003°30'6 6.2
2017-Aug-29 11:01N 50°15' W 003°36'0 5.8
2017-Aug-29 10:58N 50°14' W 003°37'3 5.1
2017-Aug-29 10:29N 50°12' W 003°38'  
2017-Aug-24 12:28N 50°22' W 004°08'9 3.8
2017-Aug-24 10:05N 50°17' W 004°20'0 4.8
2017-Aug-24 10:00N 50°17' W 004°21'8 0.4
2017-Aug-23 11:30N 50°21' W 004°09'1 0.1
2017-Aug-22 16:55N 50°22' W 004°08'  

Dump ship's entire track history